Timeline UpdatesTrip UpdatesNews PostsPvt Posts♥♥Travel TipsAdmin PostsConv PostsFollowed PostsChat RequestsBlog PostsPNR Posts

Disclaimer
Search
 
 
Thu Oct 30, 2014 18:31:11 ISTHomeTrainsΣChainsAtlasPNRForumGalleryNewsFAQTripsMembersLoginFeedback
No Recent News for this Train
Other Trains in the News **new
Latest...
.
Wed Nov 20, 2013 (01:29PM)
⇐ Return Journey: Train# 11078

11077/Jhelum Express

Time-Table HAS CHANGED.
Sep 02 2014 (12:00AM)
Change Departure Station:
Change Arrival Station:
Post a Train Travel TipPost a Train Travel Tip **new
Post a Comment/Question/Picture/VideoPost a Comment/Question/Picture/Video
Inaugural Run
Sat Jan 01, 1977
Pantry/Catering
✓ Pantry Car Avbl
✓ Catering Avbl
Loco/Rake Reversals
DD/Daund Junction (7);
RSA - Rake Sharing
No RSA.
Rake/Coach Composition
From Pune-Daund Jn-->Loco, LDS, UR, A1, A2, B1, B2, B3, B4, B5, S1, PC, S2, S3 TO S10, UR, UR, MLTY; Daund Jn To Jammu Tawi--> Loco MLTY ,UR ,UR ,S10 To S2 ,PC ,S1,B5 -B1 ,A2 ,A1 ,UR ,LDS(DD-JAT)
Loco
PUNE-MMR: PUNE WDP-4D MMR-LDH : GZB/LDH WAP4 LDH -JAT :...
Read more...
LDH WDM3A (Single/Twins)
News    PNR    Forum    Time-Table    Availability    Fare Chart    Map    Arr/Dep History    Trips    Gallery    ΣChains    X/O    Timeline    
Travel Time: 1h 23m    1 halts    Distance: 98 km    Avg Speed: 70 km/hr
Type: Mail/Express
Zone: CR/Central
Departs @ 13:52 (Avg 34m late)
Platform# 5
SMTWTFS
Jhansi Junction/JHS 
Arrives @ 15:15 (Avg 51m late)
Platform# 2
SMTWTFS
Gwalior Junction/GWL 

1 halts. 10 intermediate Stations between Jhansi Junction and Gwalior Junction

Show ALL intermediate Stations  Show Old Time-Table

#TrkCodeStation NameX/OArrivesAvgDepartsAvgHaltPFDay#KmSpeedElevZoneAddress
1/==/PUNEPune Junction (6)  -17:20+211-1188.266556mCRPune 411001, Maharashtra
2%==%URIUruli (2)  17:46+917:47+91m21-1159.458553mCRDist. Pune 412202, Maharashtra
3%==%DDDaund Junction (7)X18:35+318:50+1815m51-1112.655521mCRNew Daund Dist. Pune 413801, Maharashtra
4/--/ANGAhmadnagar (2)  20:22+1320:25+143m11-1028.468650mCRAhmednagar 414001, Maharashtra
5/--/BAPBelapur (2)X  21:24+1021:25+121m11-961.455541mCRShrirampur, Maharashtra
6/--/KPGKopargaon (2)X  22:14+722:15+111m11-916.739508mCRKopargaon 423601, Maharashtra
7/--/MMRManmad Junction (6)23:20+1123:30+2210m31-874.566580mCRManmad 423104, Maharashtra
8/==/NGNNandgaon (3)O  00:03 23:53+2200:05 23:55+222m21-849.167476mCRNandgaon, Maharashtra
9/==/CSNChalisgaon Junction (3)X  00:33+1500:35+172m22-807.082352mCRChalisgaon 424101, Maharashtra
10/==/PCPachora Junction (4)X  01:08+1501:10+182m22-762.1102264mCRPachora 424201, Maharashtra
11/==/JLJalgaon Junction (4)X  01:38+2701:40+282m32-714.472213mCRJalgaon 425001, Maharashtra
12/==/BSLBhusaval Junction (8)X  02:00+3302:10+3710m12-690.368208mCRBhusaval 425201, Maharashtra
13/==/BAUBurhanpur (2)  02:58+3003:00+302m22-635.849269mCRBurhanpur, Madhya Pradesh
14/==/KNWKhandwa Junction (5)X  04:35 04:25+404:40 04:30+75m42-567.085310mCRKhandwa, Madhya Pradesh
15/==/CAERChhanera (2)  05:02+1805:04+182m22-521.587283mWCRChhanera, Madhya Pradesh
16/==/HDHarda (3)X  05:47+1805:49+182m22-459.361289mWCRHarda, Madhya Pradesh
17/==/TBNTimarni (2)X  06:03+1906:05+192m22-445.274308mWCRTimarni, Madhya Pradesh
18/==/BPFBanapura (2)  06:28+1906:30+192m12-417.050314mWCRBanapura, Madhya Pradesh
19/==/ETItarsi Junction (7)X  07:10+1107:15+165m22-383.560329mWCRItarsi 461111, Madhya Pradesh
20/==/HBDHoshangabad (2)X  07:33+2007:35+212m12-365.464308mWCRHoshangabad, Madhya Pradesh
21/==/HBJBhopal HabibGanj (5)X  08:38+3308:40+332m32-298.015496mWCRHabibGanj, Madhya Pradesh
22/==/BPLBhopal Junction (6)O  09:05+2409:10+255m22-291.887497mWCRBhopal, Madhya Pradesh
23/==/BHSVidisha (3)X  09:47+3009:49+302m12-238.381 WCRVidisha, Madhya Pradesh
24/==/BAQGanj Basoda (4)X  10:18+3010:20+302m22-199.050 WCRVidisha, Madhya Pradesh
25/==/BINABina Junction (5)  11:15+1911:20+195m22-153.258414mWCRJn Pt - KATNI/GUNA/ BPL/JHS, Madhya Pradesh
26/==/DUADhaura (3)X  11:56+2411:58+252m--2-118.681407mNCRDhaura Tanda, Madhya Pradesh
27/==/LARLalitpur (3)  12:19+2712:21+272m32-90.386373mNCRLalitpur, Uttar Pradesh
28/==/BABBabina (3)X  13:04 13:06+2913:06 13:09+332 3m22-25.546285mNCRBabina, Uttar Pradesh
29/==/JHSJhansi Junction (7)»X  13:40 13:42+2913:50 13:52+3410m520.076259mNCRJhansi, Uttar Pradesh
30/==/DBADabra (3)X  14:36+4514:38+462m2255.469 NCRDabra(District-Gwalior), Madhya Pradesh
31/==/GWLGwalior Junction (4)•  15:15+5115:20+515m2297.793214mNCRGwalior, Madhya Pradesh
32/==/MRAMorena (3)  15:45+1:0015:47+1:022m22136.370176mNCRMorena, Madhya Pradesh
33/==/DHODholpur Junction (3)  16:10+1:0616:12+1:062m12163.157177mNCRDholpur, Rajasthan
34/==/AGCAgra Cantt. (6)X  17:07+1:0917:12+1:115m32215.734174mNCRAgra, Uttar Pradesh
35/==/RKMRaja Ki Mandi (4)  17:19+1:1517:21+1:152m12219.876170mNCRAgra, Uttar Pradesh
36/==/MTJMathura Junction (10)X  18:04 18:00+1:1718:07 18:05+1:173 5m32269.471179mNCRMathura, Uttar Pradesh
37/==/FDBFaridabad (4)X  19:41+1:1019:43+1:102m22382.632206mNRold Faridabad, Haryana
38/==/NZMDelhi Hazrat Nizamuddin (7)  20:16 20:22+1:0420:18 20:24+1:042m22403.421209mNRNew Delhi 110013, Delhi NCT
39/==/NDLSNew Delhi (16)X  20:45+1:0721:05+1:0920m62410.815215mNRNew Delhi, Delhi NCT
40/==/SZMDelhi Sabzi Mandi (2)  21:21+1:2021:23+1:202m12414.963220mNRGulabi Bagh, Delhi NCT
41/==/NURNarela (2)X  21:47 21:45+1:2521:49 21:46+1:272 1m22438.168222mNRNarela, Delhi NCT
42/==/SNPSonipat (3)  22:06 22:01+1:2822:08 22:03+1:292m22455.264225mNRSonipat, Haryana
43/==/GNUGanaurX  22:24 22:18+1:3222:26 22:20+1:342m--2471.157222mNRGanaur, Haryana
44/==/SMKSamalkha (3)22:40 22:33+1:3322:41 22:35+1:361 2m--2483.451229mNRSamalkha, Haryana
45/==/PNPPanipat Junction (5)  23:02 22:55+1:3023:04 22:57+1:302m32500.442235mNRPanipat, Haryana
46/==/GRAGharaunda (2)23:21+1:2523:22+1:261m--2517.366244mNRGharaunda, Haryana
47/==/KUNKarnal (3)O  23:38+1:2323:40+1:242m22534.848253mNRKarnal, Haryana
48/==/TRRTaraori (2)  23:54 23:55+1:2323:56+1:232 1m12546.963255mNRTaraori, Haryana
49/==/KKDEKurukshetra Junction (3)  00:29 00:16+1:1400:31 00:18+1:142m13567.941260mNRKurukshetra, Haryana
50/==/UMBAmbala Cantt. Junction (7)X  01:20+1:0501:32+1:0312m33610.035278mNRAmbala 133001, Haryana
51/==/UBCAmbala City (3)X  01:45+1:0501:46+1:061m33617.682273mNRNH-1, Haryana
52/==/RPJRajpura Junction (3)XO  02:02 02:01+1:0702:03+1:081 2m13638.051272mNRNH-1, Punjab
53/==/SIRSirhind Junction (3)X  02:32+5902:34+1:002m13662.977271mNRSirhind, Punjab
54/==/KNNKhanna (3)X  02:48+5702:49+581m13680.854269mNRNH 1, Punjab
55/==/LDHLudhiana Junction (7)X03:35 03:37+1:0803:45 03:47+1:3310m33723.658246mNRLudhiana 141001, Punjab
56/==/PGWPhagwara Junction (3)X  04:22 04:24+1:3504:24 04:26+1:352m23759.370245mNRPhagwara, Punjab
57/==/JRCJalandhar Cantt. Junction (3)  04:40+1:3804:45+1:395m13775.655239mNRNear Rama Mandi, Punjab
58/--/TDOTanda Urmar (3)  05:26 05:31+1:3205:28 05:33+1:332m13817.861239mNRUrmar Tanda, Punjab
59/--/DZADasuya (2)  05:43 05:48+1:3405:45 05:50+1:352m23833.250251mNRDasuya distt. hoshiarpur, Punjab
60/--/MEXMukerian (3)  06:03 06:08+1:3506:05 06:10+1:352m23848.248257mNRMukerian distt. hosiharpur, Punjab
61/--/PTKCPathankot Cantt (3)  07:00+1:2607:05+1:285m23888.042328mNRPathankot By Pass Ph:0186-2251594, Punjab
62/--/KTHUKathua (2)  07:38+1:3307:40+1:332m13911.264396mNRdistt. kathua, Jammu and Kashmir
63/--/HRNRHira Nagar (2)  08:06 08:07+1:4008:08 08:09+1:402m--3940.099380mNRHiranagar, Jammu and Kashmir
64/--/SMBXSamba (2)X  08:18+1:4908:20+1:532m23954.825365mNRDist. Samba, Jammu and Kashmir
65/--/VJPJVijaypur Jammu (2)XO  08:47+1:4308:49+1:452m13966.218353mNRdistt. samba, Jammu and Kashmir
66/--/JATJammu Tawi (3)  10:00+1:01-13987.5-337mNRJammu 180002, Jammu and Kashmir
Scroll to Top
Scroll to Bottom